createdAt,value
2017-12-30T00:01:59.987Z,7.27
2017-12-30T00:04:26.331Z,6.70
2017-12-30T00:06:54.214Z,7.00
2017-12-30T00:09:20.637Z,7.53
2017-12-30T00:11:48.493Z,7.30
2017-12-30T00:14:14.895Z,7.33
2017-12-30T00:16:41.262Z,7.50
2017-12-30T00:19:07.656Z,7.10
2017-12-30T00:21:34.018Z,7.33
2017-12-30T00:24:00.390Z,7.57
2017-12-30T00:26:27.565Z,6.80
2017-12-30T00:28:53.914Z,6.67
2017-12-30T00:31:20.272Z,7.63
2017-12-30T00:33:46.590Z,7.60
2017-12-30T00:36:12.918Z,7.97
2017-12-30T00:38:39.271Z,7.90
2017-12-30T00:41:05.621Z,7.37
2017-12-30T00:43:32.733Z,7.60
2017-12-30T00:45:59.164Z,8.07
2017-12-30T00:48:25.518Z,7.70
2017-12-30T00:50:51.841Z,8.07
2017-12-30T00:53:18.207Z,7.23
2017-12-30T00:55:44.537Z,7.87
2017-12-30T00:58:11.602Z,8.13
2017-12-30T01:00:37.903Z,7.30
2017-12-30T01:03:04.994Z,9.73
2017-12-30T01:05:31.344Z,7.60
2017-12-30T01:07:58.423Z,7.40
2017-12-30T01:10:24.723Z,8.17
2017-12-30T01:12:51.793Z,8.13
2017-12-30T01:15:18.097Z,7.40
2017-12-30T01:17:44.416Z,8.50
2017-12-30T01:20:10.735Z,9.40
2017-12-30T01:22:37.036Z,8.87
2017-12-30T01:25:04.091Z,7.03
2017-12-30T01:27:30.389Z,7.70
2017-12-30T01:29:57.494Z,7.80
2017-12-30T01:32:23.810Z,8.10
2017-12-30T01:34:50.147Z,9.53
2017-12-30T01:37:16.475Z,7.67
2017-12-30T01:39:42.831Z,7.83
2017-12-30T01:42:09.170Z,7.03
2017-12-30T01:44:35.503Z,9.60
2017-12-30T01:47:01.827Z,7.33
2017-12-30T01:49:29.663Z,8.23
2017-12-30T01:51:55.993Z,8.63
2017-12-30T01:54:22.307Z,7.50
2017-12-30T01:56:48.611Z,8.03
2017-12-30T01:59:15.697Z,8.30
2017-12-30T02:01:42.038Z,8.23
2017-12-30T02:04:08.361Z,9.43
2017-12-30T02:06:35.028Z,8.27
2017-12-30T02:09:01.453Z,10.87
2017-12-30T02:11:27.788Z,8.63
2017-12-30T02:13:54.111Z,8.90
2017-12-30T02:16:20.425Z,9.50
2017-12-30T02:18:46.768Z,8.83
2017-12-30T02:21:13.121Z,9.43
2017-12-30T02:23:39.438Z,9.00
2017-12-30T02:26:05.769Z,9.30
2017-12-30T02:28:32.106Z,9.13
2017-12-30T02:30:59.199Z,10.77
2017-12-30T02:33:26.257Z,9.70
2017-12-30T02:35:52.601Z,9.63
2017-12-30T02:38:18.924Z,9.80
2017-12-30T02:40:45.237Z,9.47
2017-12-30T02:43:11.572Z,9.77
2017-12-30T02:45:39.466Z,10.40
2017-12-30T02:48:05.791Z,9.53
2017-12-30T02:50:32.132Z,11.00
2017-12-30T02:52:58.455Z,10.53
2017-12-30T02:55:24.798Z,10.37
2017-12-30T02:57:51.112Z,11.10
2017-12-30T03:00:17.475Z,10.83
2017-12-30T03:02:43.806Z,11.33
2017-12-30T03:05:10.122Z,11.87
2017-12-30T03:07:36.505Z,12.83
2017-12-30T03:10:03.569Z,11.03
2017-12-30T03:12:29.904Z,10.47
2017-12-30T03:14:56.239Z,11.07
2017-12-30T03:17:22.552Z,10.80
2017-12-30T03:19:48.905Z,10.90
2017-12-30T03:22:15.234Z,10.40
2017-12-30T03:24:41.565Z,11.80
2017-12-30T03:27:07.881Z,11.53
2017-12-30T03:29:34.199Z,11.00
2017-12-30T03:32:00.549Z,11.87
2017-12-30T03:34:26.870Z,10.67
2017-12-30T03:36:53.203Z,11.50
2017-12-30T03:39:19.539Z,10.47
2017-12-30T03:41:45.866Z,11.10
2017-12-30T03:44:12.208Z,11.50
2017-12-30T03:46:38.548Z,11.20
2017-12-30T03:49:04.857Z,11.40
2017-12-30T03:51:31.176Z,11.87
2017-12-30T03:53:57.529Z,11.80
2017-12-30T03:56:23.847Z,13.20
2017-12-30T03:58:50.176Z,13.20
2017-12-30T04:01:16.513Z,14.30
2017-12-30T04:03:42.818Z,14.53
2017-12-30T04:06:09.175Z,13.20
2017-12-30T04:08:35.493Z,13.20
2017-12-30T04:11:01.828Z,12.93
2017-12-30T04:13:28.156Z,13.63
2017-12-30T04:15:54.498Z,14.10
2017-12-30T04:18:20.857Z,13.83
2017-12-30T04:20:47.195Z,15.03
2017-12-30T04:23:13.510Z,13.00
2017-12-30T04:25:39.872Z,14.47
2017-12-30T04:28:06.975Z,13.37
2017-12-30T04:30:33.300Z,14.17
2017-12-30T04:32:59.608Z,13.10
2017-12-30T04:35:25.949Z,13.17
2017-12-30T04:37:52.260Z,14.17
2017-12-30T04:40:19.309Z,13.30
2017-12-30T04:42:46.379Z,12.33
2017-12-30T04:45:12.713Z,12.07
2017-12-30T04:47:39.046Z,13.80
2017-12-30T04:50:05.363Z,12.80
2017-12-30T04:52:31.704Z,14.43
2017-12-30T04:54:58.023Z,13.60
2017-12-30T04:57:24.388Z,13.47
2017-12-30T04:59:50.720Z,15.87
2017-12-30T05:02:17.054Z,15.70
2017-12-30T05:04:43.368Z,13.47
2017-12-30T05:07:09.692Z,14.20
2017-12-30T05:09:36.024Z,13.90
2017-12-30T05:12:02.373Z,15.77
2017-12-30T05:14:28.770Z,16.33
2017-12-30T05:16:55.391Z,14.07
2017-12-30T05:19:21.716Z,13.80
2017-12-30T05:21:48.063Z,14.20
2017-12-30T05:24:14.396Z,15.23
2017-12-30T05:26:40.707Z,15.13
2017-12-30T05:29:07.775Z,12.93
2017-12-30T05:31:34.083Z,14.23
2017-12-30T05:34:00.416Z,16.67
2017-12-30T05:36:26.742Z,12.07
2017-12-30T05:38:53.076Z,13.40
2017-12-30T05:41:19.435Z,13.23
2017-12-30T05:43:45.763Z,13.60
2017-12-30T05:46:12.099Z,12.60
2017-12-30T05:48:38.418Z,15.60
2017-12-30T05:51:04.728Z,14.07
2017-12-30T05:53:31.083Z,13.80
2017-12-30T05:55:57.405Z,13.87
2017-12-30T05:58:23.708Z,13.10
2017-12-30T06:00:50.784Z,14.83
2017-12-30T06:03:17.103Z,13.63
2017-12-30T06:05:43.428Z,13.13
2017-12-30T06:08:09.750Z,13.80
2017-12-30T06:10:36.831Z,12.17
2017-12-30T06:13:03.150Z,13.77
2017-12-30T06:15:29.497Z,14.40
2017-12-30T06:17:55.821Z,11.23
2017-12-30T06:20:22.148Z,14.23
2017-12-30T06:22:48.468Z,13.63
2017-12-30T06:25:14.798Z,16.27
2017-12-30T06:27:41.111Z,13.80
2017-12-30T06:30:08.165Z,14.20
2017-12-30T06:32:35.209Z,13.33
2017-12-30T06:35:01.511Z,17.30
2017-12-30T06:37:27.831Z,15.73
2017-12-30T06:39:54.918Z,16.83
2017-12-30T06:42:21.993Z,13.73
2017-12-30T06:44:48.328Z,13.73
2017-12-30T06:47:14.730Z,14.03
2017-12-30T06:49:41.039Z,14.17
2017-12-30T06:52:08.127Z,13.50
2017-12-30T06:54:34.446Z,15.90
2017-12-30T06:57:00.790Z,12.80
2017-12-30T06:59:27.114Z,12.97
2017-12-30T07:01:53.830Z,20.60
2017-12-30T07:04:20.893Z,13.70
2017-12-30T07:06:47.212Z,13.40
2017-12-30T07:09:13.874Z,14.27
2017-12-30T07:11:40.176Z,14.00
2017-12-30T07:14:06.506Z,12.87
2017-12-30T07:16:33.553Z,12.53
2017-12-30T07:18:59.933Z,12.23
2017-12-30T07:21:26.230Z,13.57
2017-12-30T07:23:52.553Z,15.53
2017-12-30T07:26:18.859Z,18.67
2017-12-30T07:28:45.921Z,13.47
2017-12-30T07:31:12.222Z,13.07
2017-12-30T07:33:38.555Z,14.53
2017-12-30T07:36:04.866Z,14.97
2017-12-30T07:38:31.190Z,15.03
2017-12-30T07:40:57.497Z,13.10
2017-12-30T07:43:23.814Z,18.10
2017-12-30T07:45:50.130Z,15.77
2017-12-30T07:48:17.179Z,13.90
2017-12-30T07:50:43.524Z,13.90
2017-12-30T07:53:09.854Z,13.10
2017-12-30T07:55:36.184Z,16.60
2017-12-30T07:58:02.497Z,12.70
2017-12-30T08:00:28.820Z,12.80
2017-12-30T08:02:55.874Z,11.97
2017-12-30T08:05:22.939Z,12.80
2017-12-30T08:07:49.259Z,14.40
2017-12-30T08:10:15.609Z,16.07
2017-12-30T08:12:41.913Z,13.00
2017-12-30T08:15:08.240Z,12.63
2017-12-30T08:17:35.323Z,12.87
2017-12-30T08:20:01.643Z,13.70
2017-12-30T08:22:28.027Z,15.50
2017-12-30T08:24:54.347Z,15.70
2017-12-30T08:27:20.680Z,16.87
2017-12-30T08:29:46.992Z,13.00
2017-12-30T08:32:13.323Z,14.50
2017-12-30T08:34:39.636Z,12.50
2017-12-30T08:37:05.962Z,14.10
2017-12-30T08:39:32.267Z,13.50
2017-12-30T08:41:58.620Z,13.07
2017-12-30T08:44:25.044Z,12.40
2017-12-30T08:46:51.374Z,15.33
2017-12-30T08:49:17.719Z,13.67
2017-12-30T08:51:44.049Z,12.30
2017-12-30T08:54:10.358Z,12.20
2017-12-30T08:56:36.684Z,11.77
2017-12-30T08:59:03.005Z,12.87
2017-12-30T09:01:30.072Z,13.60
2017-12-30T09:03:56.407Z,13.67
2017-12-30T09:06:22.713Z,11.33
2017-12-30T09:08:49.787Z,10.70
2017-12-30T09:11:16.098Z,12.50
2017-12-30T09:13:42.443Z,10.30
2017-12-30T09:16:08.750Z,14.17
2017-12-30T09:18:35.807Z,12.03
2017-12-30T09:21:02.145Z,15.93
2017-12-30T09:23:28.479Z,12.47
2017-12-30T09:25:54.814Z,10.13
2017-12-30T09:28:21.122Z,10.13
2017-12-30T09:30:47.449Z,11.17
2017-12-30T09:33:14.514Z,9.57
2017-12-30T09:35:40.825Z,14.97
2017-12-30T09:38:07.874Z,11.77
2017-12-30T09:40:34.940Z,11.27
2017-12-30T09:43:01.255Z,10.60
2017-12-30T09:45:28.297Z,11.27
2017-12-30T09:47:54.664Z,10.03
2017-12-30T09:50:20.986Z,14.37
2017-12-30T09:52:47.307Z,9.03
2017-12-30T09:55:13.647Z,15.33
2017-12-30T09:57:39.947Z,12.30
2017-12-30T10:00:07.018Z,9.90
2017-12-30T10:02:33.347Z,12.43
2017-12-30T10:04:59.674Z,10.97
2017-12-30T10:07:26.016Z,10.50
2017-12-30T10:09:52.381Z,9.93
2017-12-30T10:12:19.465Z,12.53
2017-12-30T10:14:46.530Z,13.83
2017-12-30T10:17:12.950Z,8.60
2017-12-30T10:19:39.303Z,9.20
2017-12-30T10:22:05.606Z,12.80
2017-12-30T10:24:32.656Z,12.27
2017-12-30T10:26:58.960Z,13.20
2017-12-30T10:29:25.298Z,8.27
2017-12-30T10:31:52.367Z,10.57
2017-12-30T10:34:18.695Z,7.37
2017-12-30T10:36:45.038Z,11.73
2017-12-30T10:39:11.386Z,9.90
2017-12-30T10:41:37.705Z,10.33
2017-12-30T10:44:04.025Z,12.00
2017-12-30T10:46:30.366Z,8.37
2017-12-30T10:48:56.694Z,9.77
2017-12-30T10:51:23.115Z,10.13
2017-12-30T10:53:49.462Z,11.40
2017-12-30T10:56:15.880Z,10.33
2017-12-30T10:58:42.209Z,9.23
2017-12-30T11:01:08.559Z,10.87
2017-12-30T11:03:34.891Z,10.63
2017-12-30T11:06:01.222Z,8.73
2017-12-30T11:08:27.559Z,7.13
2017-12-30T11:10:53.881Z,8.60
2017-12-30T11:13:20.195Z,8.17
2017-12-30T11:15:46.537Z,8.73
2017-12-30T11:18:12.863Z,9.57
2017-12-30T11:20:39.224Z,7.80
2017-12-30T11:23:05.563Z,10.60
2017-12-30T11:25:31.915Z,13.23
2017-12-30T11:27:58.991Z,6.80
2017-12-30T11:30:25.328Z,11.20
2017-12-30T11:32:51.675Z,6.60
2017-12-30T11:35:17.987Z,9.43
2017-12-30T11:37:44.325Z,6.70
2017-12-30T11:40:10.655Z,8.70
2017-12-30T11:42:37.013Z,9.83
2017-12-30T11:45:03.367Z,8.07
2017-12-30T11:47:30.468Z,8.53
2017-12-30T11:49:56.798Z,7.10
2017-12-30T11:52:23.148Z,7.63
2017-12-30T11:54:50.984Z,7.80
2017-12-30T11:57:17.340Z,9.23
2017-12-30T11:59:43.844Z,8.50
2017-12-30T12:02:10.320Z,9.67
2017-12-30T12:04:36.664Z,8.73
2017-12-30T12:07:02.996Z,9.00
2017-12-30T12:09:29.303Z,7.10
2017-12-30T12:11:55.634Z,5.73
2017-12-30T12:14:21.971Z,5.13
2017-12-30T12:16:48.302Z,6.87
2017-12-30T12:19:14.638Z,5.90
2017-12-30T12:21:40.929Z,9.00
2017-12-30T12:24:07.252Z,7.90
2017-12-30T12:26:33.573Z,10.90
2017-12-30T12:28:59.911Z,7.90
2017-12-30T12:31:26.226Z,7.57
2017-12-30T12:33:53.273Z,5.80
2017-12-30T12:36:19.623Z,8.93
2017-12-30T12:38:45.963Z,7.30
2017-12-30T12:41:12.277Z,6.30
2017-12-30T12:43:38.594Z,7.07
2017-12-30T12:46:04.929Z,8.87
2017-12-30T12:48:31.284Z,9.10
2017-12-30T12:50:57.598Z,7.70
2017-12-30T12:53:23.943Z,7.33
2017-12-30T12:55:50.249Z,8.10
2017-12-30T12:58:17.318Z,7.00
2017-12-30T13:00:43.699Z,6.23
2017-12-30T13:03:10.037Z,15.50
2017-12-30T13:05:37.134Z,9.30
2017-12-30T13:08:03.730Z,6.90
2017-12-30T13:10:30.787Z,12.43
2017-12-30T13:12:57.840Z,10.53
2017-12-30T13:15:24.203Z,6.20
2017-12-30T13:17:50.551Z,8.50
2017-12-30T13:20:16.909Z,10.60
2017-12-30T13:22:43.349Z,8.77
2017-12-30T13:25:09.774Z,7.63
2017-12-30T13:27:36.205Z,10.90
2017-12-30T13:30:02.593Z,13.97
2017-12-30T13:32:28.970Z,10.60
2017-12-30T13:34:55.354Z,16.37
2017-12-30T13:37:21.667Z,9.70
2017-12-30T13:39:48.018Z,9.50
2017-12-30T13:42:14.348Z,11.13
2017-12-30T13:44:40.687Z,9.50
2017-12-30T13:47:06.995Z,13.33
2017-12-30T13:49:33.310Z,12.17
2017-12-30T13:51:59.661Z,10.80
2017-12-30T13:54:26.063Z,8.07
2017-12-30T13:56:52.419Z,12.50
2017-12-30T13:59:18.755Z,10.90
2017-12-30T14:01:45.141Z,11.80
2017-12-30T14:04:11.502Z,12.83
2017-12-30T14:06:37.913Z,9.40
2017-12-30T14:09:04.972Z,13.90
2017-12-30T14:11:31.330Z,10.80
2017-12-30T14:13:57.660Z,11.80
2017-12-30T14:16:24.025Z,16.67
2017-12-30T14:18:50.353Z,10.60
2017-12-30T14:21:16.695Z,16.27
2017-12-30T14:23:43.110Z,11.57
2017-12-30T14:26:09.495Z,9.57
2017-12-30T14:28:35.843Z,9.27
2017-12-30T14:31:02.246Z,10.07
2017-12-30T14:33:28.580Z,6.90
2017-12-30T14:35:55.139Z,10.63
2017-12-30T14:38:21.463Z,10.90
2017-12-30T14:40:47.791Z,7.80
2017-12-30T14:43:14.125Z,9.07
2017-12-30T14:45:40.463Z,7.23
2017-12-30T14:48:06.900Z,9.13
2017-12-30T14:50:33.226Z,7.10
2017-12-30T14:52:59.551Z,9.37
2017-12-30T14:55:25.916Z,7.80
2017-12-30T14:57:52.237Z,9.43
2017-12-30T15:00:18.539Z,8.20
2017-12-30T15:02:44.896Z,8.03
2017-12-30T15:05:11.221Z,7.37
2017-12-30T15:07:37.538Z,7.07
2017-12-30T15:10:03.868Z,6.53
2017-12-30T15:12:30.194Z,7.20
2017-12-30T15:14:56.524Z,6.47
2017-12-30T15:17:22.879Z,5.87
2017-12-30T15:19:49.240Z,5.43
2017-12-30T15:22:16.320Z,5.37
2017-12-30T15:24:42.693Z,6.70
2017-12-30T15:27:09.056Z,5.23
2017-12-30T15:29:36.148Z,4.90
2017-12-30T15:32:02.473Z,6.20
2017-12-30T15:34:28.940Z,5.23
2017-12-30T15:36:55.284Z,5.00
2017-12-30T15:39:21.622Z,5.00
2017-12-30T15:41:48.726Z,5.70
2017-12-30T15:44:15.055Z,6.10
2017-12-30T15:46:41.383Z,6.13
2017-12-30T15:49:07.714Z,4.63
2017-12-30T15:51:34.042Z,5.93
2017-12-30T15:54:00.408Z,7.00
2017-12-30T15:56:26.736Z,5.60
2017-12-30T15:58:53.071Z,6.53
2017-12-30T16:01:19.385Z,6.90
2017-12-30T16:03:45.753Z,6.53
2017-12-30T16:06:12.814Z,5.97
2017-12-30T16:08:39.161Z,7.90
2017-12-30T16:11:05.498Z,7.10
2017-12-30T16:13:31.816Z,6.87
2017-12-30T16:15:58.192Z,8.60
2017-12-30T16:18:24.512Z,8.00
2017-12-30T16:20:50.823Z,7.17
2017-12-30T16:23:17.147Z,8.40
2017-12-30T16:25:43.485Z,7.63
2017-12-30T16:28:09.808Z,8.23
2017-12-30T16:30:36.257Z,8.20
2017-12-30T16:33:02.685Z,7.90
2017-12-30T16:35:29.060Z,7.73
2017-12-30T16:37:55.421Z,7.73
2017-12-30T16:40:21.816Z,8.37
2017-12-30T16:42:48.159Z,9.33
2017-12-30T16:45:14.468Z,8.60
2017-12-30T16:47:40.800Z,8.40
2017-12-30T16:50:07.114Z,8.50
2017-12-30T16:52:33.481Z,10.37
2017-12-30T16:54:59.842Z,8.73
2017-12-30T16:57:26.255Z,9.90
2017-12-30T16:59:53.437Z,9.43
2017-12-30T17:02:19.852Z,10.23
2017-12-30T17:04:46.492Z,10.60
2017-12-30T17:07:13.707Z,11.60
2017-12-30T17:09:40.052Z,12.20
2017-12-30T17:12:06.433Z,37.37
2017-12-30T17:14:32.756Z,16.00
2017-12-30T17:16:59.202Z,17.07
2017-12-30T17:19:25.525Z,15.50
2017-12-30T17:21:51.879Z,11.53
2017-12-30T17:24:18.199Z,14.23
2017-12-30T17:26:46.057Z,12.77
2017-12-30T17:29:12.452Z,16.13
2017-12-30T17:31:38.810Z,13.10
2017-12-30T17:34:05.249Z,12.40
2017-12-30T17:36:31.585Z,13.70
2017-12-30T17:38:58.130Z,11.43
2017-12-30T17:41:24.475Z,13.67
2017-12-30T17:43:50.942Z,12.93
2017-12-30T17:46:18.046Z,11.20
2017-12-30T17:48:44.383Z,12.00
2017-12-30T17:51:11.528Z,12.00
2017-12-30T17:53:37.956Z,13.83
2017-12-30T17:56:04.259Z,13.17
2017-12-30T17:58:30.643Z,13.03
2017-12-30T18:00:57.019Z,14.80
2017-12-30T18:03:23.430Z,13.03
2017-12-30T18:05:49.839Z,12.70
2017-12-30T18:08:17.064Z,15.20
2017-12-30T18:10:43.498Z,14.17
2017-12-30T18:13:09.859Z,14.80
2017-12-30T18:15:36.385Z,15.43
2017-12-30T18:18:02.735Z,14.80
2017-12-30T18:20:29.095Z,17.37
2017-12-30T18:22:55.500Z,17.47
2017-12-30T18:25:21.888Z,15.80
2017-12-30T18:27:48.262Z,15.10
2017-12-30T18:30:14.673Z,16.83
2017-12-30T18:32:41.078Z,16.20
2017-12-30T18:35:07.462Z,14.93
2017-12-30T18:37:33.855Z,14.90
2017-12-30T18:40:00.213Z,14.63
2017-12-30T18:42:27.335Z,16.20
2017-12-30T18:44:53.693Z,14.03
2017-12-30T18:47:20.808Z,15.00
2017-12-30T18:49:47.238Z,17.00
2017-12-30T18:52:13.625Z,12.23
2017-12-30T18:54:40.103Z,12.40
2017-12-30T18:57:06.516Z,9.60
2017-12-30T18:59:32.858Z,10.07
2017-12-30T19:01:59.250Z,9.23
2017-12-30T19:04:25.674Z,8.37
2017-12-30T19:06:52.470Z,8.77
2017-12-30T19:09:18.902Z,13.67
2017-12-30T19:11:45.413Z,9.50
2017-12-30T19:14:11.974Z,8.50
2017-12-30T19:16:38.351Z,8.57
2017-12-30T19:19:04.687Z,9.07
2017-12-30T19:21:31.098Z,9.37
2017-12-30T19:23:58.217Z,8.73
2017-12-30T19:26:24.574Z,7.97
2017-12-30T19:28:51.643Z,6.43
2017-12-30T19:31:18.814Z,8.00
2017-12-30T19:33:45.251Z,5.90
2017-12-30T19:36:11.632Z,4.80
2017-12-30T19:38:37.938Z,7.50
2017-12-30T19:41:04.329Z,3.50
2017-12-30T19:43:30.698Z,4.03
2017-12-30T19:45:57.078Z,4.33
2017-12-30T19:48:23.545Z,4.13
2017-12-30T19:50:49.906Z,3.83
2017-12-30T19:53:16.277Z,5.53
2017-12-30T19:55:43.375Z,4.50
2017-12-30T19:58:09.809Z,8.30
2017-12-30T20:00:36.242Z,6.47
2017-12-30T20:03:02.683Z,5.70
2017-12-30T20:05:29.799Z,4.57
2017-12-30T20:07:56.268Z,3.07
2017-12-30T20:10:22.679Z,4.10
2017-12-30T20:12:49.071Z,4.97
2017-12-30T20:15:16.163Z,5.40
2017-12-30T20:17:42.546Z,3.93
2017-12-30T20:20:08.923Z,9.73
2017-12-30T20:22:35.385Z,6.77
2017-12-30T20:25:01.773Z,5.33
2017-12-30T20:27:28.230Z,5.90
2017-12-30T20:29:54.595Z,7.10
2017-12-30T20:32:21.787Z,3.83
2017-12-30T20:34:48.189Z,5.80
2017-12-30T20:37:14.571Z,3.03
2017-12-30T20:39:40.946Z,9.00
2017-12-30T20:42:08.104Z,5.47
2017-12-30T20:44:35.284Z,7.60
2017-12-30T20:47:01.740Z,4.30
2017-12-30T20:49:28.171Z,7.27
2017-12-30T20:51:54.554Z,5.97
2017-12-30T20:54:21.750Z,8.33
2017-12-30T20:56:48.218Z,6.43
2017-12-30T20:59:15.338Z,5.07
2017-12-30T21:01:41.711Z,6.00
2017-12-30T21:04:08.201Z,5.43
2017-12-30T21:06:34.618Z,9.03
2017-12-30T21:09:00.986Z,6.60
2017-12-30T21:11:28.218Z,6.73
2017-12-30T21:13:55.442Z,5.67
2017-12-30T21:16:21.882Z,5.17
2017-12-30T21:18:48.336Z,5.83
2017-12-30T21:21:15.561Z,4.97
2017-12-30T21:23:42.817Z,5.40
2017-12-30T21:26:09.229Z,3.30
2017-12-30T21:28:35.683Z,4.67
2017-12-30T21:31:02.081Z,8.30
2017-12-30T21:33:28.571Z,3.33
2017-12-30T21:35:55.103Z,3.80
2017-12-30T21:38:21.498Z,2.63
2017-12-30T21:40:47.894Z,3.70
2017-12-30T21:43:15.015Z,2.40
2017-12-30T21:45:41.449Z,6.37
2017-12-30T21:48:07.867Z,5.70
2017-12-30T21:50:34.317Z,3.97
2017-12-30T21:53:00.669Z,3.90
2017-12-30T21:55:27.081Z,6.00
2017-12-30T21:57:53.456Z,5.43
2017-12-30T22:00:19.866Z,7.47
2017-12-30T22:02:46.277Z,3.27
2017-12-30T22:05:12.674Z,5.63
2017-12-30T22:07:39.030Z,9.10
2017-12-30T22:10:06.192Z,4.97
2017-12-30T22:12:33.435Z,6.90
2017-12-30T22:14:59.826Z,4.23
2017-12-30T22:17:26.186Z,3.73
2017-12-30T22:19:52.612Z,6.10
2017-12-30T22:22:19.066Z,7.17
2017-12-30T22:24:45.442Z,4.03
2017-12-30T22:27:11.820Z,3.33
2017-12-30T22:29:38.270Z,6.93
2017-12-30T22:32:04.770Z,5.93
2017-12-30T22:34:31.205Z,4.67
2017-12-30T22:36:57.632Z,3.83
2017-12-30T22:39:24.074Z,4.30
2017-12-30T22:41:50.526Z,3.10
2017-12-30T22:44:16.878Z,4.40
2017-12-30T22:46:43.363Z,7.00
2017-12-30T22:49:09.762Z,4.20
2017-12-30T22:51:36.230Z,4.33
2017-12-30T22:54:02.611Z,5.77
2017-12-30T22:56:29.088Z,5.37
2017-12-30T22:58:55.471Z,5.87
2017-12-30T23:01:22.607Z,5.40
2017-12-30T23:03:49.735Z,2.57
2017-12-30T23:06:16.098Z,5.00
2017-12-30T23:08:43.250Z,6.93
2017-12-30T23:11:09.658Z,4.50
2017-12-30T23:13:36.098Z,4.97
2017-12-30T23:16:02.617Z,3.67
2017-12-30T23:18:29.768Z,6.73
2017-12-30T23:20:56.212Z,5.20
2017-12-30T23:23:22.591Z,4.90
2017-12-30T23:25:49.049Z,3.50
2017-12-30T23:28:15.417Z,4.20
2017-12-30T23:30:41.840Z,5.10
2017-12-30T23:33:08.213Z,4.03
2017-12-30T23:35:34.615Z,4.43
2017-12-30T23:38:01.008Z,7.97
2017-12-30T23:40:27.440Z,5.20
2017-12-30T23:42:53.807Z,6.90
2017-12-30T23:45:20.168Z,3.93
2017-12-30T23:47:47.349Z,3.87
2017-12-30T23:50:13.700Z,7.10
2017-12-30T23:52:40.065Z,4.13
2017-12-30T23:55:06.422Z,5.87
2017-12-30T23:57:32.821Z,3.77
2017-12-30T23:59:59.932Z,2.70
